sensor_id;sensor_type;location;lat;lon;timestamp;pressure;altitude;pressure_sealevel;temperature;humidity
20620;BME280;10469;42.720;23.252;2023-04-03T00:01:13;94256.66;;;8.59;100.00
20620;BME280;10469;42.720;23.252;2023-04-03T00:03:40;94269.22;;;8.58;100.00
20620;BME280;10469;42.720;23.252;2023-04-03T00:06:10;94282.50;;;8.53;100.00
20620;BME280;10469;42.720;23.252;2023-04-03T00:08:37;94270.81;;;8.30;100.00
20620;BME280;10469;42.720;23.252;2023-04-03T00:11:04;94266.28;;;8.43;100.00
20620;BME280;10469;42.720;23.252;2023-04-03T00:13:32;94237.22;;;8.35;100.00
20620;BME280;10469;42.720;23.252;2023-04-03T00:15:58;94238.16;;;8.28;100.00
20620;BME280;10469;42.720;23.252;2023-04-03T00:18:24;94234.47;;;8.29;100.00
20620;BME280;10469;42.720;23.252;2023-04-03T00:20:50;94237.97;;;8.18;100.00
20620;BME280;10469;42.720;23.252;2023-04-03T00:23:16;94246.09;;;8.23;100.00
20620;BME280;10469;42.720;23.252;2023-04-03T00:25:43;94256.34;;;8.03;100.00
20620;BME280;10469;42.720;23.252;2023-04-03T00:28:09;94238.50;;;7.92;100.00
20620;BME280;10469;42.720;23.252;2023-04-03T00:30:35;94253.22;;;7.94;100.00
20620;BME280;10469;42.720;23.252;2023-04-03T00:33:01;94248.06;;;7.64;100.00
20620;BME280;10469;42.720;23.252;2023-04-03T00:35:27;94264.41;;;7.33;100.00
20620;BME280;10469;42.720;23.252;2023-04-03T00:37:55;94247.75;;;7.25;100.00
20620;BME280;10469;42.720;23.252;2023-04-03T00:40:23;94256.28;;;7.16;100.00
20620;BME280;10469;42.720;23.252;2023-04-03T00:42:55;94266.50;;;7.19;100.00
20620;BME280;10469;42.720;23.252;2023-04-03T00:47:50;94261.47;;;6.99;100.00
20620;BME280;10469;42.720;23.252;2023-04-03T00:50:17;94271.31;;;6.87;100.00
20620;BME280;10469;42.720;23.252;2023-04-03T00:52:46;94259.13;;;6.91;100.00
20620;BME280;10469;42.720;23.252;2023-04-03T00:55:15;94271.13;;;7.00;100.00
20620;BME280;10469;42.720;23.252;2023-04-03T00:57:51;94202.28;;;6.43;100.00
20620;BME280;10469;42.720;23.252;2023-04-03T01:00:20;94189.97;;;6.31;100.00
20620;BME280;10469;42.720;23.252;2023-04-03T01:02:47;94197.09;;;6.18;100.00
20620;BME280;10469;42.720;23.252;2023-04-03T01:05:21;94210.19;;;6.20;100.00
20620;BME280;10469;42.720;23.252;2023-04-03T01:07:49;94183.81;;;6.00;100.00
20620;BME280;10469;42.720;23.252;2023-04-03T01:10:16;94266.53;;;6.17;100.00
20620;BME280;10469;42.720;23.252;2023-04-03T01:12:46;94257.19;;;6.26;100.00
20620;BME280;10469;42.720;23.252;2023-04-03T01:15:24;94274.41;;;6.42;100.00
20620;BME280;10469;42.720;23.252;2023-04-03T01:17:55;94227.88;;;6.14;100.00
20620;BME280;10469;42.720;23.252;2023-04-03T01:25:55;94269.44;;;6.45;100.00
20620;BME280;10469;42.720;23.252;2023-04-03T01:28:27;94281.63;;;6.53;100.00
20620;BME280;10469;42.720;23.252;2023-04-03T01:31:18;94289.44;;;6.66;100.00
20620;BME280;10469;42.720;23.252;2023-04-03T01:33:47;94284.91;;;6.67;100.00
20620;BME280;10469;42.720;23.252;2023-04-03T01:36:19;94290.19;;;6.55;100.00
20620;BME280;10469;42.720;23.252;2023-04-03T01:38:46;94286.41;;;6.63;100.00
20620;BME280;10469;42.720;23.252;2023-04-03T01:41:12;94278.84;;;6.48;100.00
20620;BME280;10469;42.720;23.252;2023-04-03T01:43:38;94280.97;;;6.58;100.00
20620;BME280;10469;42.720;23.252;2023-04-03T01:46:04;94274.00;;;6.57;100.00
20620;BME280;10469;42.720;23.252;2023-04-03T01:48:33;94251.38;;;6.47;100.00
20620;BME280;10469;42.720;23.252;2023-04-03T01:51:02;94267.81;;;6.44;100.00
20620;BME280;10469;42.720;23.252;2023-04-03T01:53:28;94273.16;;;6.44;100.00
20620;BME280;10469;42.720;23.252;2023-04-03T01:55:53;94250.53;;;6.35;100.00
20620;BME280;10469;42.720;23.252;2023-04-03T01:58:19;94272.16;;;6.57;100.00
20620;BME280;10469;42.720;23.252;2023-04-03T02:00:45;94265.41;;;6.54;100.00
20620;BME280;10469;42.720;23.252;2023-04-03T02:03:11;94276.38;;;6.46;100.00
20620;BME280;10469;42.720;23.252;2023-04-03T02:05:37;94266.72;;;6.34;100.00
20620;BME280;10469;42.720;23.252;2023-04-03T02:08:03;94252.03;;;6.31;100.00
20620;BME280;10469;42.720;23.252;2023-04-03T02:10:29;94265.06;;;6.51;100.00
20620;BME280;10469;42.720;23.252;2023-04-03T02:12:55;94254.50;;;6.44;100.00
20620;BME280;10469;42.720;23.252;2023-04-03T02:15:21;94264.38;;;6.56;100.00
20620;BME280;10469;42.720;23.252;2023-04-03T02:17:46;94257.31;;;6.49;100.00
20620;BME280;10469;42.720;23.252;2023-04-03T02:20:12;94266.81;;;6.57;100.00
20620;BME280;10469;42.720;23.252;2023-04-03T02:22:38;94269.81;;;6.49;100.00
20620;BME280;10469;42.720;23.252;2023-04-03T02:25:04;94269.94;;;6.54;100.00
20620;BME280;10469;42.720;23.252;2023-04-03T02:27:30;94251.59;;;6.16;100.00
20620;BME280;10469;42.720;23.252;2023-04-03T02:29:57;94242.28;;;6.07;100.00
20620;BME280;10469;42.720;23.252;2023-04-03T02:32:23;94238.97;;;6.11;100.00
20620;BME280;10469;42.720;23.252;2023-04-03T02:34:49;94235.06;;;5.95;100.00
20620;BME280;10469;42.720;23.252;2023-04-03T02:37:14;94249.53;;;5.99;100.00
20620;BME280;10469;42.720;23.252;2023-04-03T02:39:41;94246.50;;;6.14;100.00
20620;BME280;10469;42.720;23.252;2023-04-03T02:42:07;94254.56;;;6.08;100.00
20620;BME280;10469;42.720;23.252;2023-04-03T02:44:33;94256.19;;;6.09;100.00
20620;BME280;10469;42.720;23.252;2023-04-03T02:46:59;94244.88;;;5.95;100.00
20620;BME280;10469;42.720;23.252;2023-04-03T02:49:27;94240.84;;;5.92;100.00
20620;BME280;10469;42.720;23.252;2023-04-03T02:51:52;94246.19;;;5.86;100.00
20620;BME280;10469;42.720;23.252;2023-04-03T02:54:18;94246.53;;;5.96;100.00
20620;BME280;10469;42.720;23.252;2023-04-03T02:56:44;94242.94;;;5.47;100.00
20620;BME280;10469;42.720;23.252;2023-04-03T02:59:11;94247.31;;;5.60;100.00
20620;BME280;10469;42.720;23.252;2023-04-03T03:04:37;94243.81;;;5.41;100.00
20620;BME280;10469;42.720;23.252;2023-04-03T03:07:05;94237.94;;;5.57;100.00
20620;BME280;10469;42.720;23.252;2023-04-03T03:09:31;94225.16;;;5.66;100.00
20620;BME280;10469;42.720;23.252;2023-04-03T03:11:59;94208.81;;;5.62;100.00
20620;BME280;10469;42.720;23.252;2023-04-03T03:14:28;94227.72;;;5.91;100.00
20620;BME280;10469;42.720;23.252;2023-04-03T03:16:57;94217.41;;;6.01;100.00
20620;BME280;10469;42.720;23.252;2023-04-03T03:19:22;94225.28;;;5.89;100.00
20620;BME280;10469;42.720;23.252;2023-04-03T03:21:48;94237.13;;;5.93;100.00
20620;BME280;10469;42.720;23.252;2023-04-03T03:24:13;94218.03;;;5.78;100.00
20620;BME280;10469;42.720;23.252;2023-04-03T03:26:41;94216.78;;;5.81;100.00
20620;BME280;10469;42.720;23.252;2023-04-03T03:29:09;94230.19;;;5.92;100.00
20620;BME280;10469;42.720;23.252;2023-04-03T03:31:35;94240.50;;;5.82;100.00
20620;BME280;10469;42.720;23.252;2023-04-03T03:34:00;94229.56;;;5.72;100.00
20620;BME280;10469;42.720;23.252;2023-04-03T03:36:26;94243.44;;;5.74;100.00
20620;BME280;10469;42.720;23.252;2023-04-03T03:38:52;94237.25;;;5.80;100.00
20620;BME280;10469;42.720;23.252;2023-04-03T03:41:19;94184.72;;;5.39;100.00
20620;BME280;10469;42.720;23.252;2023-04-03T03:43:46;94242.50;;;5.68;100.00
20620;BME280;10469;42.720;23.252;2023-04-03T03:46:11;94245.69;;;5.59;100.00
20620;BME280;10469;42.720;23.252;2023-04-03T03:48:37;94164.41;;;5.08;100.00
20620;BME280;10469;42.720;23.252;2023-04-03T03:51:04;94238.19;;;5.31;100.00
20620;BME280;10469;42.720;23.252;2023-04-03T03:53:32;94242.84;;;5.35;100.00
20620;BME280;10469;42.720;23.252;2023-04-03T03:55:57;94251.47;;;5.31;100.00
20620;BME280;10469;42.720;23.252;2023-04-03T03:58:23;94239.06;;;5.24;100.00
20620;BME280;10469;42.720;23.252;2023-04-03T04:00:49;94186.69;;;4.88;100.00
20620;BME280;10469;42.720;23.252;2023-04-03T04:03:15;94240.81;;;5.12;100.00
20620;BME280;10469;42.720;23.252;2023-04-03T04:05:41;94252.91;;;5.08;100.00
20620;BME280;10469;42.720;23.252;2023-04-03T04:08:07;94212.88;;;4.85;100.00
20620;BME280;10469;42.720;23.252;2023-04-03T04:10:34;94249.59;;;5.13;100.00
20620;BME280;10469;42.720;23.252;2023-04-03T04:13:02;94227.66;;;4.99;100.00
20620;BME280;10469;42.720;23.252;2023-04-03T04:15:28;94243.19;;;5.20;100.00
20620;BME280;10469;42.720;23.252;2023-04-03T04:17:54;94249.66;;;5.06;100.00
20620;BME280;10469;42.720;23.252;2023-04-03T04:20:20;94235.22;;;4.95;100.00
20620;BME280;10469;42.720;23.252;2023-04-03T04:22:46;94264.97;;;5.11;100.00
20620;BME280;10469;42.720;23.252;2023-04-03T04:25:12;94277.06;;;5.32;100.00
20620;BME280;10469;42.720;23.252;2023-04-03T04:27:38;94277.06;;;5.32;100.00
20620;BME280;10469;42.720;23.252;2023-04-03T04:30:04;94276.13;;;5.19;100.00
20620;BME280;10469;42.720;23.252;2023-04-03T04:32:31;94232.81;;;4.94;100.00
20620;BME280;10469;42.720;23.252;2023-04-03T04:34:56;94204.94;;;4.78;100.00
20620;BME280;10469;42.720;23.252;2023-04-03T04:37:22;94168.28;;;4.62;100.00
20620;BME280;10469;42.720;23.252;2023-04-03T04:39:48;94256.44;;;5.27;100.00
20620;BME280;10469;42.720;23.252;2023-04-03T04:42:14;94221.53;;;4.73;100.00
20620;BME280;10469;42.720;23.252;2023-04-03T04:44:40;94286.50;;;5.27;100.00
20620;BME280;10469;42.720;23.252;2023-04-03T04:47:05;94274.22;;;5.26;100.00
20620;BME280;10469;42.720;23.252;2023-04-03T04:49:31;94267.66;;;5.04;100.00
20620;BME280;10469;42.720;23.252;2023-04-03T04:51:57;94284.63;;;5.28;100.00
20620;BME280;10469;42.720;23.252;2023-04-03T04:54:23;94286.97;;;5.18;100.00
20620;BME280;10469;42.720;23.252;2023-04-03T04:56:49;94297.75;;;5.48;100.00
20620;BME280;10469;42.720;23.252;2023-04-03T04:59:15;94298.59;;;5.85;100.00
20620;BME280;10469;42.720;23.252;2023-04-03T05:01:40;94303.63;;;5.75;100.00
20620;BME280;10469;42.720;23.252;2023-04-03T05:04:06;94285.53;;;5.84;100.00
20620;BME280;10469;42.720;23.252;2023-04-03T05:06:32;94298.56;;;5.92;100.00
20620;BME280;10469;42.720;23.252;2023-04-03T05:08:58;94286.28;;;6.09;100.00
20620;BME280;10469;42.720;23.252;2023-04-03T05:11:24;94289.44;;;6.36;100.00
20620;BME280;10469;42.720;23.252;2023-04-03T05:13:51;94299.13;;;6.31;100.00
20620;BME280;10469;42.720;23.252;2023-04-03T05:16:17;94303.91;;;5.92;100.00
20620;BME280;10469;42.720;23.252;2023-04-03T05:18:43;94318.31;;;5.77;100.00
20620;BME280;10469;42.720;23.252;2023-04-03T05:21:08;94315.81;;;5.83;100.00
20620;BME280;10469;42.720;23.252;2023-04-03T05:23:36;94299.50;;;5.36;100.00
20620;BME280;10469;42.720;23.252;2023-04-03T05:26:02;94287.19;;;5.41;100.00
20620;BME280;10469;42.720;23.252;2023-04-03T05:28:30;94311.53;;;5.82;100.00
20620;BME280;10469;42.720;23.252;2023-04-03T05:30:57;94318.03;;;5.67;100.00
20620;BME280;10469;42.720;23.252;2023-04-03T05:33:24;94298.78;;;5.65;100.00
20620;BME280;10469;42.720;23.252;2023-04-03T05:35:50;94309.97;;;5.74;100.00
20620;BME280;10469;42.720;23.252;2023-04-03T05:38:16;94323.22;;;5.81;100.00
20620;BME280;10469;42.720;23.252;2023-04-03T05:40:42;94316.88;;;6.00;100.00
20620;BME280;10469;42.720;23.252;2023-04-03T05:43:08;94308.59;;;6.26;100.00
20620;BME280;10469;42.720;23.252;2023-04-03T05:45:35;94298.41;;;6.05;100.00
20620;BME280;10469;42.720;23.252;2023-04-03T05:48:00;94310.03;;;6.11;100.00
20620;BME280;10469;42.720;23.252;2023-04-03T05:50:26;94283.47;;;6.22;100.00
20620;BME280;10469;42.720;23.252;2023-04-03T05:52:52;94311.03;;;6.28;100.00
20620;BME280;10469;42.720;23.252;2023-04-03T05:55:20;94284.13;;;6.18;100.00
20620;BME280;10469;42.720;23.252;2023-04-03T05:57:46;94280.22;;;6.02;100.00
20620;BME280;10469;42.720;23.252;2023-04-03T06:00:13;94310.53;;;6.01;100.00
20620;BME280;10469;42.720;23.252;2023-04-03T06:02:41;94305.19;;;6.19;100.00
20620;BME280;10469;42.720;23.252;2023-04-03T06:05:08;94271.28;;;6.15;100.00
20620;BME280;10469;42.720;23.252;2023-04-03T06:07:34;94225.28;;;5.89;100.00
20620;BME280;10469;42.720;23.252;2023-04-03T06:10:01;94259.50;;;6.04;100.00
20620;BME280;10469;42.720;23.252;2023-04-03T06:12:27;94301.50;;;6.20;100.00
20620;BME280;10469;42.720;23.252;2023-04-03T06:14:55;94284.19;;;6.60;100.00
20620;BME280;10469;42.720;23.252;2023-04-03T06:17:21;94254.53;;;6.26;100.00
20620;BME280;10469;42.720;23.252;2023-04-03T06:19:47;94266.84;;;6.39;100.00
20620;BME280;10469;42.720;23.252;2023-04-03T06:22:13;94247.28;;;6.33;100.00
20620;BME280;10469;42.720;23.252;2023-04-03T06:24:39;94270.94;;;6.41;100.00
20620;BME280;10469;42.720;23.252;2023-04-03T06:27:05;94270.88;;;6.29;100.00
20620;BME280;10469;42.720;23.252;2023-04-03T06:29:31;94258.47;;;6.23;100.00
20620;BME280;10469;42.720;23.252;2023-04-03T06:31:57;94279.53;;;6.25;100.00
20620;BME280;10469;42.720;23.252;2023-04-03T06:34:23;94274.75;;;6.75;100.00
20620;BME280;10469;42.720;23.252;2023-04-03T06:36:49;94283.13;;;6.79;100.00
20620;BME280;10469;42.720;23.252;2023-04-03T06:39:18;94289.78;;;7.12;100.00
20620;BME280;10469;42.720;23.252;2023-04-03T06:41:46;94286.88;;;7.01;100.00
20620;BME280;10469;42.720;23.252;2023-04-03T06:44:12;94297.81;;;6.82;100.00
20620;BME280;10469;42.720;23.252;2023-04-03T06:46:41;94283.06;;;6.67;100.00
20620;BME280;10469;42.720;23.252;2023-04-03T06:49:10;94270.28;;;6.88;100.00
20620;BME280;10469;42.720;23.252;2023-04-03T06:51:36;94297.47;;;7.32;100.00
20620;BME280;10469;42.720;23.252;2023-04-03T06:54:03;94290.59;;;7.12;100.00
20620;BME280;10469;42.720;23.252;2023-04-03T06:56:29;94285.63;;;7.16;100.00
20620;BME280;10469;42.720;23.252;2023-04-03T06:58:56;94289.22;;;7.10;100.00
20620;BME280;10469;42.720;23.252;2023-04-03T07:01:28;94300.72;;;7.80;100.00
20620;BME280;10469;42.720;23.252;2023-04-03T07:03:56;94294.91;;;7.84;100.00
20620;BME280;10469;42.720;23.252;2023-04-03T07:06:21;94301.28;;;8.58;100.00
20620;BME280;10469;42.720;23.252;2023-04-03T07:08:48;94298.69;;;8.63;100.00
20620;BME280;10469;42.720;23.252;2023-04-03T07:11:15;94285.03;;;9.05;100.00
20620;BME280;10469;42.720;23.252;2023-04-03T07:13:40;94295.75;;;9.39;100.00
20620;BME280;10469;42.720;23.252;2023-04-03T07:16:07;94288.00;;;9.37;100.00
20620;BME280;10469;42.720;23.252;2023-04-03T07:18:33;94272.78;;;8.92;100.00
20620;BME280;10469;42.720;23.252;2023-04-03T07:21:00;94282.53;;;9.49;100.00
20620;BME280;10469;42.720;23.252;2023-04-03T07:23:26;94270.81;;;9.50;100.00
20620;BME280;10469;42.720;23.252;2023-04-03T07:25:52;94260.22;;;9.60;100.00
20620;BME280;10469;42.720;23.252;2023-04-03T07:28:19;94266.31;;;10.11;100.00
20620;BME280;10469;42.720;23.252;2023-04-03T07:30:50;94265.47;;;9.89;100.00
20620;BME280;10469;42.720;23.252;2023-04-03T07:33:18;94264.91;;;10.09;100.00
20620;BME280;10469;42.720;23.252;2023-04-03T07:35:45;94263.03;;;9.87;100.00
20620;BME280;10469;42.720;23.252;2023-04-03T07:38:11;94254.91;;;10.21;100.00
20620;BME280;10469;42.720;23.252;2023-04-03T07:40:38;94236.16;;;10.70;100.00
20620;BME280;10469;42.720;23.252;2023-04-03T07:43:05;94251.44;;;11.23;100.00
20620;BME280;10469;42.720;23.252;2023-04-03T07:45:34;94244.81;;;11.73;100.00
20620;BME280;10469;42.720;23.252;2023-04-03T07:48:00;94237.91;;;11.83;100.00
20620;BME280;10469;42.720;23.252;2023-04-03T07:50:27;94249.69;;;11.76;100.00
20620;BME280;10469;42.720;23.252;2023-04-03T07:52:53;94229.25;;;12.18;100.00
20620;BME280;10469;42.720;23.252;2023-04-03T07:55:21;94225.41;;;11.24;100.00
20620;BME280;10469;42.720;23.252;2023-04-03T07:57:47;94224.03;;;10.89;100.00
20620;BME280;10469;42.720;23.252;2023-04-03T08:00:16;94229.50;;;11.74;100.00
20620;BME280;10469;42.720;23.252;2023-04-03T08:02:45;94227.41;;;12.23;100.00
20620;BME280;10469;42.720;23.252;2023-04-03T08:05:21;94227.03;;;12.04;100.00
20620;BME280;10469;42.720;23.252;2023-04-03T08:07:54;94204.22;;;12.17;100.00
20620;BME280;10469;42.720;23.252;2023-04-03T08:10:20;94220.22;;;11.87;100.00
20620;BME280;10469;42.720;23.252;2023-04-03T08:12:46;94193.28;;;11.76;100.00
20620;BME280;10469;42.720;23.252;2023-04-03T08:15:12;94205.44;;;11.84;100.00
20620;BME280;10469;42.720;23.252;2023-04-03T08:17:38;94229.47;;;12.11;100.00
20620;BME280;10469;42.720;23.252;2023-04-03T08:20:06;94220.94;;;11.77;100.00
20620;BME280;10469;42.720;23.252;2023-04-03T08:22:33;94213.34;;;12.11;100.00
20620;BME280;10469;42.720;23.252;2023-04-03T08:24:59;94214.84;;;12.39;100.00
20620;BME280;10469;42.720;23.252;2023-04-03T08:27:25;94222.47;;;12.83;100.00
20620;BME280;10469;42.720;23.252;2023-04-03T08:29:52;94204.19;;;13.67;100.00
20620;BME280;10469;42.720;23.252;2023-04-03T08:32:18;94216.97;;;14.31;99.43
20620;BME280;10469;42.720;23.252;2023-04-03T08:34:45;94223.03;;;13.77;98.22
20620;BME280;10469;42.720;23.252;2023-04-03T08:37:11;94210.13;;;13.38;99.78
20620;BME280;10469;42.720;23.252;2023-04-03T08:39:37;94174.31;;;13.07;100.00
20620;BME280;10469;42.720;23.252;2023-04-03T08:42:55;94206.63;;;13.63;98.24
20620;BME280;10469;42.720;23.252;2023-04-03T08:45:05;94197.50;;;13.28;98.67
20620;BME280;10469;42.720;23.252;2023-04-03T08:50:54;94193.13;;;12.66;100.00
20620;BME280;10469;42.720;23.252;2023-04-03T08:53:25;94198.81;;;13.00;100.00
20620;BME280;10469;42.720;23.252;2023-04-03T08:55:55;94193.72;;;13.24;100.00
20620;BME280;10469;42.720;23.252;2023-04-03T08:58:23;94171.34;;;13.03;100.00
20620;BME280;10469;42.720;23.252;2023-04-03T09:00:54;94185.38;;;13.00;100.00
20620;BME280;10469;42.720;23.252;2023-04-03T09:03:22;94175.44;;;13.32;98.64
20620;BME280;10469;42.720;23.252;2023-04-03T09:08:31;94170.56;;;13.44;97.86
20620;BME280;10469;42.720;23.252;2023-04-03T09:13:59;94163.81;;;12.90;98.96
20620;BME280;10469;42.720;23.252;2023-04-03T09:16:47;94161.59;;;13.79;96.61
20620;BME280;10469;42.720;23.252;2023-04-03T09:19:20;94171.66;;;13.27;96.58
20620;BME280;10469;42.720;23.252;2023-04-03T09:21:47;94144.16;;;13.46;97.12
20620;BME280;10469;42.720;23.252;2023-04-03T09:24:15;94157.34;;;13.42;96.67
20620;BME280;10469;42.720;23.252;2023-04-03T09:29:18;94125.84;;;13.53;97.19
20620;BME280;10469;42.720;23.252;2023-04-03T09:31:48;94145.19;;;13.75;95.84
20620;BME280;10469;42.720;23.252;2023-04-03T09:34:18;94142.28;;;13.57;96.59
20620;BME280;10469;42.720;23.252;2023-04-03T09:36:51;94102.16;;;13.45;96.75
20620;BME280;10469;42.720;23.252;2023-04-03T09:39:23;94142.72;;;13.84;94.77
20620;BME280;10469;42.720;23.252;2023-04-03T09:44:34;94132.16;;;14.58;93.20
20620;BME280;10469;42.720;23.252;2023-04-03T09:47:24;94128.59;;;15.36;84.68
20620;BME280;10469;42.720;23.252;2023-04-03T09:49:51;94115.63;;;14.69;87.31
20620;BME280;10469;42.720;23.252;2023-04-03T09:52:28;94123.59;;;15.19;86.28
20620;BME280;10469;42.720;23.252;2023-04-03T09:55:10;94111.28;;;14.24;90.68
20620;BME280;10469;42.720;23.252;2023-04-03T09:57:38;94115.25;;;14.37;91.15
20620;BME280;10469;42.720;23.252;2023-04-03T10:00:05;94107.75;;;14.34;92.35
20620;BME280;10469;42.720;23.252;2023-04-03T10:02:40;94107.25;;;14.26;91.87
20620;BME280;10469;42.720;23.252;2023-04-03T10:05:37;94108.28;;;14.30;95.30
20620;BME280;10469;42.720;23.252;2023-04-03T10:08:30;94111.88;;;14.65;93.07
20620;BME280;10469;42.720;23.252;2023-04-03T10:11:17;94097.41;;;14.46;93.67
20620;BME280;10469;42.720;23.252;2023-04-03T10:13:56;94076.38;;;13.98;94.27
20620;BME280;10469;42.720;23.252;2023-04-03T10:43:40;94015.59;;;12.87;97.49
20620;BME280;10469;42.720;23.252;2023-04-03T11:12:08;94048.66;;;12.41;100.00
20620;BME280;10469;42.720;23.252;2023-04-03T11:14:36;94076.38;;;12.72;100.00
20620;BME280;10469;42.720;23.252;2023-04-03T11:17:18;94072.59;;;12.38;100.00
20620;BME280;10469;42.720;23.252;2023-04-03T11:22:39;94062.31;;;12.04;100.00
20620;BME280;10469;42.720;23.252;2023-04-03T11:27:43;94082.13;;;11.83;100.00
20620;BME280;10469;42.720;23.252;2023-04-03T11:30:27;94056.66;;;11.33;100.00
20620;BME280;10469;42.720;23.252;2023-04-03T11:33:24;94079.72;;;11.28;100.00
20620;BME280;10469;42.720;23.252;2023-04-03T11:36:05;94077.34;;;10.95;100.00
20620;BME280;10469;42.720;23.252;2023-04-03T11:38:38;94073.56;;;10.91;100.00
20620;BME280;10469;42.720;23.252;2023-04-03T11:41:09;94089.25;;;11.09;100.00
20620;BME280;10469;42.720;23.252;2023-04-03T11:46:53;94093.84;;;10.76;100.00
20620;BME280;10469;42.720;23.252;2023-04-03T12:11:14;94092.66;;;10.94;100.00
20620;BME280;10469;42.720;23.252;2023-04-03T12:19:37;94081.00;;;10.78;100.00
20620;BME280;10469;42.720;23.252;2023-04-03T12:22:08;94081.84;;;10.84;100.00
20620;BME280;10469;42.720;23.252;2023-04-03T12:24:37;94066.53;;;10.79;100.00
20620;BME280;10469;42.720;23.252;2023-04-03T12:29:38;94061.09;;;10.69;100.00
20620;BME280;10469;42.720;23.252;2023-04-03T12:40:57;94055.59;;;9.95;100.00
20620;BME280;10469;42.720;23.252;2023-04-03T12:48:49;94072.88;;;9.60;100.00
20620;BME280;10469;42.720;23.252;2023-04-03T12:54:45;94045.88;;;9.40;100.00
20620;BME280;10469;42.720;23.252;2023-04-03T12:56:46;94041.69;;;9.27;100.00
20620;BME280;10469;42.720;23.252;2023-04-03T12:59:24;94046.59;;;9.13;100.00
20620;BME280;10469;42.720;23.252;2023-04-03T13:02:00;94029.97;;;8.89;100.00
20620;BME280;10469;42.720;23.252;2023-04-03T13:04:27;94051.72;;;8.98;100.00
20620;BME280;10469;42.720;23.252;2023-04-03T13:06:54;94059.22;;;8.96;100.00
20620;BME280;10469;42.720;23.252;2023-04-03T13:12:14;94064.00;;;8.94;100.00
20620;BME280;10469;42.720;23.252;2023-04-03T13:14:49;94034.22;;;8.85;100.00
20620;BME280;10469;42.720;23.252;2023-04-03T13:17:17;94061.22;;;8.89;100.00
20620;BME280;10469;42.720;23.252;2023-04-03T13:19:44;94055.88;;;8.89;100.00
20620;BME280;10469;42.720;23.252;2023-04-03T13:22:27;94059.97;;;8.74;100.00
20620;BME280;10469;42.720;23.252;2023-04-03T13:24:54;94043.38;;;8.72;100.00
20620;BME280;10469;42.720;23.252;2023-04-03T13:27:20;94056.16;;;8.70;100.00
20620;BME280;10469;42.720;23.252;2023-04-03T13:29:53;94045.00;;;8.73;100.00
20620;BME280;10469;42.720;23.252;2023-04-03T13:32:25;94047.41;;;8.58;100.00
20620;BME280;10469;42.720;23.252;2023-04-03T13:34:52;94039.41;;;8.58;100.00
20620;BME280;10469;42.720;23.252;2023-04-03T13:37:27;94037.72;;;8.52;100.00
20620;BME280;10469;42.720;23.252;2023-04-03T13:39:59;94036.84;;;8.46;100.00
20620;BME280;10469;42.720;23.252;2023-04-03T13:42:30;94043.00;;;8.47;100.00
20620;BME280;10469;42.720;23.252;2023-04-03T13:45:27;94054.81;;;8.51;100.00
20620;BME280;10469;42.720;23.252;2023-04-03T13:48:16;94044.53;;;8.43;100.00
20620;BME280;10469;42.720;23.252;2023-04-03T13:50:59;94050.72;;;8.32;100.00
20620;BME280;10469;42.720;23.252;2023-04-03T13:53:26;94042.72;;;8.32;100.00
20620;BME280;10469;42.720;23.252;2023-04-03T13:56:16;94042.97;;;8.30;100.00
20620;BME280;10469;42.720;23.252;2023-04-03T13:58:56;94042.63;;;8.26;100.00
20620;BME280;10469;42.720;23.252;2023-04-03T14:01:23;94025.72;;;8.21;100.00
20620;BME280;10469;42.720;23.252;2023-04-03T14:03:57;94028.69;;;8.24;100.00
20620;BME280;10469;42.720;23.252;2023-04-03T14:06:24;94007.09;;;8.09;100.00
20620;BME280;10469;42.720;23.252;2023-04-03T14:08:50;94037.22;;;8.21;100.00
20620;BME280;10469;42.720;23.252;2023-04-03T14:11:26;94032.44;;;8.23;100.00
20620;BME280;10469;42.720;23.252;2023-04-03T14:14:09;94037.34;;;8.15;100.00
20620;BME280;10469;42.720;23.252;2023-04-03T14:16:40;94016.25;;;8.13;100.00
20620;BME280;10469;42.720;23.252;2023-04-03T14:19:09;94039.22;;;8.31;100.00
20620;BME280;10469;42.720;23.252;2023-04-03T14:21:40;94019.97;;;8.12;100.00
20620;BME280;10469;42.720;23.252;2023-04-03T14:24:06;94019.97;;;8.12;100.00
20620;BME280;10469;42.720;23.252;2023-04-03T14:26:32;94033.81;;;8.09;100.00
20620;BME280;10469;42.720;23.252;2023-04-03T14:28:58;94013.16;;;8.04;100.00
20620;BME280;10469;42.720;23.252;2023-04-03T14:31:23;94010.09;;;8.13;100.00
20620;BME280;10469;42.720;23.252;2023-04-03T14:33:50;94028.88;;;8.18;100.00
20620;BME280;10469;42.720;23.252;2023-04-03T14:36:18;94015.44;;;8.13;100.00
20620;BME280;10469;42.720;23.252;2023-04-03T14:38:46;94016.47;;;8.12;100.00
20620;BME280;10469;42.720;23.252;2023-04-03T14:41:14;94026.25;;;8.06;100.00
20620;BME280;10469;42.720;23.252;2023-04-03T14:43:40;93984.84;;;7.87;100.00
20620;BME280;10469;42.720;23.252;2023-04-03T14:46:20;93977.44;;;7.77;100.00
20620;BME280;10469;42.720;23.252;2023-04-03T14:48:47;94033.38;;;8.00;100.00
20620;BME280;10469;42.720;23.252;2023-04-03T14:51:14;94003.59;;;7.92;100.00
20620;BME280;10469;42.720;23.252;2023-04-03T14:53:41;94003.13;;;7.95;100.00
20620;BME280;10469;42.720;23.252;2023-04-03T14:56:23;93972.13;;;7.77;100.00
20620;BME280;10469;42.720;23.252;2023-04-03T14:58:54;93990.78;;;7.77;100.00
20620;BME280;10469;42.720;23.252;2023-04-03T15:01:20;94007.13;;;7.80;100.00
20620;BME280;10469;42.720;23.252;2023-04-03T15:03:46;93972.19;;;7.65;100.00
20620;BME280;10469;42.720;23.252;2023-04-03T15:06:13;93998.53;;;7.90;100.00
20620;BME280;10469;42.720;23.252;2023-04-03T15:08:40;93982.22;;;7.75;100.00
20620;BME280;10469;42.720;23.252;2023-04-03T15:11:08;94008.28;;;7.85;100.00
20620;BME280;10469;42.720;23.252;2023-04-03T15:13:36;93995.09;;;7.78;100.00